createdAt,value
2017-09-10T00:00:02.073Z,35.73
2017-09-10T00:05:04.037Z,33.97
2017-09-10T00:10:06.044Z,33.40
2017-09-10T00:15:07.998Z,36.77
2017-09-10T00:20:10.137Z,34.90
2017-09-10T00:25:12.065Z,36.27
2017-09-10T00:30:15.028Z,35.50
2017-09-10T00:35:16.978Z,35.70
2017-09-10T00:40:18.946Z,34.07
2017-09-10T00:45:20.902Z,33.03
2017-09-10T00:50:22.945Z,33.17
2017-09-10T00:55:24.896Z,38.33
2017-09-10T01:00:26.884Z,40.37
2017-09-10T01:05:28.882Z,39.47
2017-09-10T01:10:30.916Z,36.70
2017-09-10T01:15:32.981Z,37.73
2017-09-10T01:20:35.071Z,34.70
2017-09-10T01:25:37.110Z,35.83
2017-09-10T01:30:39.540Z,36.23
2017-09-10T01:35:41.944Z,34.40
2017-09-10T01:40:44.776Z,33.77
2017-09-10T01:45:46.978Z,33.43
2017-09-10T01:50:48.966Z,32.60
2017-09-10T01:55:50.926Z,34.00
2017-09-10T02:00:53.338Z,36.37
2017-09-10T02:05:55.314Z,29.77
2017-09-10T02:10:57.289Z,32.20
2017-09-10T02:15:59.303Z,32.67
2017-09-10T02:21:01.330Z,32.17
2017-09-10T02:26:03.302Z,36.10
2017-09-10T02:31:05.327Z,34.97
2017-09-10T02:36:07.307Z,37.23
2017-09-10T02:41:19.188Z,38.85
2017-09-10T02:46:21.218Z,42.60
2017-09-10T02:51:23.164Z,43.10
2017-09-10T02:56:31.438Z,36.87
2017-09-10T03:01:39.695Z,47.10
2017-09-10T03:06:48.663Z,44.33
2017-09-10T03:11:52.164Z,47.80
2017-09-10T03:16:55.911Z,48.47
2017-09-10T03:22:03.515Z,45.47
2017-09-10T03:27:09.165Z,43.93
2017-09-10T03:32:13.282Z,43.90
2017-09-10T03:37:15.895Z,45.37
2017-09-10T03:42:24.041Z,45.60
2017-09-10T03:47:27.108Z,47.40
2017-09-10T03:52:29.691Z,48.47
2017-09-10T03:57:33.373Z,46.57
2017-09-10T04:02:36.461Z,49.77
2017-09-10T04:07:39.824Z,46.33
2017-09-10T04:12:42.957Z,44.70
2017-09-10T04:17:46.287Z,47.40
2017-09-10T04:22:49.066Z,45.87
2017-09-10T04:27:52.101Z,44.27
2017-09-10T04:32:54.938Z,44.37
2017-09-10T04:37:57.780Z,45.23
2017-09-10T04:43:00.228Z,44.37
2017-09-10T04:48:03.426Z,41.63
2017-09-10T04:53:06.388Z,42.97
2017-09-10T04:58:13.808Z,43.03
2017-09-10T05:03:19.785Z,42.57
2017-09-10T05:08:26.898Z,39.87
2017-09-10T05:13:30.817Z,40.23
2017-09-10T05:18:34.771Z,37.60
2017-09-10T05:23:43.349Z,38.23
2017-09-10T05:28:48.237Z,40.70
2017-09-10T05:33:55.395Z,36.87
2017-09-10T05:38:59.257Z,38.17
2017-09-10T05:44:06.141Z,34.97
2017-09-10T05:49:12.950Z,36.50
2017-09-10T05:54:17.381Z,33.63
2017-09-10T05:59:26.730Z,35.60
2017-09-10T06:04:31.824Z,37.43
2017-09-10T06:09:39.951Z,36.13
2017-09-10T06:14:44.227Z,35.27
2017-09-10T06:19:51.947Z,33.33
2017-09-10T06:24:55.109Z,31.17
2017-09-10T06:30:04.200Z,30.17
2017-09-10T06:35:12.708Z,28.67
2017-09-10T06:40:18.006Z,29.77
2017-09-10T06:45:21.069Z,30.87
2017-09-10T06:50:23.832Z,30.60
2017-09-10T06:55:26.693Z,28.93
2017-09-10T07:00:29.123Z,26.47
2017-09-10T07:05:31.701Z,26.93
2017-09-10T07:10:34.299Z,25.47
2017-09-10T07:15:37.078Z,26.20
2017-09-10T07:20:39.530Z,28.50
2017-09-10T07:25:42.896Z,24.27
2017-09-10T07:30:45.425Z,25.10
2017-09-10T07:35:47.748Z,24.27
2017-09-10T07:40:49.742Z,22.63
2017-09-10T07:45:51.708Z,21.90
2017-09-10T07:50:53.682Z,21.87
2017-09-10T07:55:55.677Z,19.70
2017-09-10T08:00:57.650Z,20.10
2017-09-10T08:05:59.860Z,19.10
2017-09-10T08:11:01.818Z,18.00
2017-09-10T08:16:04.366Z,17.73
2017-09-10T08:21:06.308Z,17.50
2017-09-10T08:26:08.418Z,18.23
2017-09-10T08:31:10.432Z,18.43
2017-09-10T08:36:12.407Z,17.53
2017-09-10T08:41:14.406Z,16.20
2017-09-10T08:46:16.378Z,16.50
2017-09-10T08:51:18.325Z,15.47
2017-09-10T08:56:20.523Z,16.67
2017-09-10T09:01:22.481Z,16.43
2017-09-10T09:06:24.421Z,16.03
2017-09-10T09:11:26.366Z,15.50
2017-09-10T09:16:28.457Z,12.70
2017-09-10T09:21:30.484Z,9.57
2017-09-10T09:26:40.076Z,8.80
2017-09-10T09:31:44.026Z,7.70
2017-09-10T09:36:46.235Z,8.43
2017-09-10T09:41:48.335Z,6.83
2017-09-10T09:46:53.352Z,8.60
2017-09-10T09:51:55.595Z,7.07
2017-09-10T09:56:58.021Z,6.13
2017-09-10T10:02:00.371Z,5.97
2017-09-10T10:07:02.777Z,6.83
2017-09-10T10:12:04.736Z,6.00
2017-09-10T10:17:06.708Z,6.13
2017-09-10T10:22:08.813Z,6.20
2017-09-10T10:27:12.490Z,6.37
2017-09-10T10:32:20.596Z,7.23
2017-09-10T10:37:23.655Z,7.37
2017-09-10T10:42:26.839Z,7.93
2017-09-10T10:47:30.675Z,7.03
2017-09-10T10:52:33.634Z,7.23
2017-09-10T10:57:36.666Z,7.13
2017-09-10T11:02:39.253Z,6.20
2017-09-10T11:07:48.117Z,6.30
2017-09-10T11:12:50.912Z,4.80
2017-09-10T11:17:53.409Z,4.57
2017-09-10T11:23:00.440Z,4.83
2017-09-10T11:28:03.100Z,4.60
2017-09-10T11:33:06.574Z,3.80
2017-09-10T11:38:09.016Z,4.63
2017-09-10T11:43:12.965Z,3.93
2017-09-10T11:48:15.346Z,3.80
2017-09-10T11:53:17.755Z,2.90
2017-09-10T11:58:19.977Z,2.70
2017-09-10T12:03:22.297Z,2.60
2017-09-10T12:08:29.621Z,2.47
2017-09-10T12:13:33.418Z,2.40
2017-09-10T12:18:35.988Z,2.50
2017-09-10T12:23:38.401Z,2.13
2017-09-10T12:28:43.625Z,1.90
2017-09-10T12:33:46.177Z,2.53
2017-09-10T12:38:48.691Z,2.40
2017-09-10T12:43:51.035Z,2.83
2017-09-10T12:48:53.465Z,2.40
2017-09-10T12:53:55.969Z,2.80
2017-09-10T12:59:00.531Z,2.60
2017-09-10T13:04:03.180Z,2.40
2017-09-10T13:09:05.332Z,2.30
2017-09-10T13:14:07.627Z,2.07
2017-09-10T13:19:09.612Z,1.97
2017-09-10T13:24:11.627Z,2.17
2017-09-10T13:29:13.598Z,2.80
2017-09-10T13:34:15.935Z,2.40
2017-09-10T13:39:17.916Z,2.27
2017-09-10T13:44:19.907Z,2.00
2017-09-10T13:49:21.841Z,2.20
2017-09-10T13:54:23.864Z,2.23
2017-09-10T13:59:26.109Z,2.63
2017-09-10T14:04:28.039Z,2.03
2017-09-10T14:09:30.046Z,2.00
2017-09-10T14:14:32.014Z,2.23
2017-09-10T14:19:33.985Z,2.10
2017-09-10T14:24:35.967Z,1.50
2017-09-10T14:29:37.953Z,1.80
2017-09-10T14:34:39.975Z,1.83
2017-09-10T14:39:42.014Z,2.97
2017-09-10T14:44:44.445Z,1.83
2017-09-10T14:49:46.431Z,1.40
2017-09-10T14:54:48.430Z,1.40
2017-09-10T14:59:51.514Z,1.70
2017-09-10T15:04:53.464Z,1.57
2017-09-10T15:09:55.477Z,1.37
2017-09-10T15:14:57.506Z,1.37
2017-09-10T15:19:59.595Z,1.20
2017-09-10T15:25:01.554Z,0.90
2017-09-10T15:30:04.081Z,1.00
2017-09-10T15:35:06.100Z,1.10
2017-09-10T15:40:08.108Z,1.27
2017-09-10T15:45:10.109Z,0.90
2017-09-10T15:50:12.053Z,1.20
2017-09-10T15:55:15.440Z,1.40
2017-09-10T16:00:18.051Z,1.00
2017-09-10T16:05:20.476Z,1.13
2017-09-10T16:10:23.487Z,1.20
2017-09-10T16:15:25.415Z,1.20
2017-09-10T16:20:27.363Z,0.70
2017-09-10T16:25:29.349Z,1.00
2017-09-10T16:30:31.358Z,1.10
2017-09-10T16:35:33.628Z,1.30
2017-09-10T16:40:35.622Z,0.90
2017-09-10T16:45:37.611Z,1.07
2017-09-10T16:50:39.910Z,1.00
2017-09-10T16:55:42.237Z,1.20
2017-09-10T17:00:44.305Z,1.33
2017-09-10T17:05:47.695Z,1.00
2017-09-10T17:10:49.650Z,1.40
2017-09-10T17:15:51.679Z,1.40
2017-09-10T17:20:53.725Z,1.00
2017-09-10T17:25:55.704Z,1.37
2017-09-10T17:30:59.505Z,1.20
2017-09-10T17:36:10.082Z,1.03
2017-09-10T17:41:12.658Z,1.30
2017-09-10T17:46:15.038Z,1.50
2017-09-10T17:51:17.787Z,0.90
2017-09-10T17:56:22.027Z,1.20
2017-09-10T18:01:24.378Z,1.00
2017-09-10T18:06:33.402Z,1.27
2017-09-10T18:11:40.542Z,1.50
2017-09-10T18:16:42.928Z,1.37
2017-09-10T18:21:45.315Z,0.97
2017-09-10T18:26:48.662Z,1.73
2017-09-10T18:31:51.889Z,1.50
2017-09-10T18:36:55.336Z,1.30
2017-09-10T18:41:58.146Z,1.70
2017-09-10T18:47:00.163Z,1.57
2017-09-10T18:52:02.238Z,1.30
2017-09-10T18:57:04.285Z,1.70
2017-09-10T19:02:06.289Z,1.70
2017-09-10T19:07:08.296Z,1.67
2017-09-10T19:12:10.324Z,1.90
2017-09-10T19:17:12.320Z,1.50
2017-09-10T19:22:14.321Z,1.80
2017-09-10T19:27:16.594Z,1.80
2017-09-10T19:32:20.917Z,1.57
2017-09-10T19:37:24.371Z,2.10
2017-09-10T19:42:28.351Z,1.97
2017-09-10T19:47:31.382Z,1.80
2017-09-10T19:52:35.706Z,2.07
2017-09-10T19:57:37.895Z,1.97
2017-09-10T20:02:40.171Z,1.97
2017-09-10T20:07:57.450Z,1.80
2017-09-10T20:13:00.653Z,2.10
2017-09-10T20:18:03.419Z,2.10
2017-09-10T20:23:06.536Z,2.80
2017-09-10T20:28:09.830Z,2.03
2017-09-10T20:33:13.621Z,2.17
2017-09-10T20:38:16.769Z,1.90
2017-09-10T20:43:20.059Z,2.40
2017-09-10T20:48:23.047Z,1.80
2017-09-10T20:53:26.418Z,2.03
2017-09-10T20:58:31.675Z,1.77
2017-09-10T21:03:35.417Z,2.13
2017-09-10T21:08:38.319Z,1.87
2017-09-10T21:13:40.918Z,2.30
2017-09-10T21:23:51.969Z,2.10
2017-09-10T21:28:54.611Z,1.93
2017-09-10T21:33:56.983Z,2.07
2017-09-10T21:38:59.535Z,1.83
2017-09-10T21:44:03.579Z,1.87
2017-09-10T21:49:05.621Z,1.83
2017-09-10T21:54:07.599Z,2.10
2017-09-10T21:59:09.859Z,1.83
2017-09-10T22:04:11.928Z,2.20
2017-09-10T22:09:13.919Z,1.77
2017-09-10T22:14:15.908Z,1.83
2017-09-10T22:19:17.939Z,1.93
2017-09-10T22:24:20.046Z,2.23
2017-09-10T22:29:22.126Z,1.70
2017-09-10T22:34:24.346Z,2.50
2017-09-10T22:39:26.291Z,1.60
2017-09-10T22:44:28.246Z,1.90
2017-09-10T22:49:30.222Z,2.00
2017-09-10T22:54:32.499Z,1.67
2017-09-10T22:59:34.674Z,2.03
2017-09-10T23:04:36.775Z,1.63
2017-09-10T23:09:38.794Z,1.57
2017-09-10T23:14:41.105Z,2.07
2017-09-10T23:19:43.268Z,2.00
2017-09-10T23:24:45.401Z,2.03
2017-09-10T23:29:47.477Z,2.23
2017-09-10T23:34:49.581Z,2.10
2017-09-10T23:39:51.566Z,2.00
2017-09-10T23:44:53.831Z,2.03
2017-09-10T23:49:55.847Z,2.40
2017-09-10T23:54:57.934Z,2.40
2017-09-10T23:59:59.915Z,2.17
